Time;durP1;ratioP1;P1;durP2;ratioP2;P2;SDS_P1;SDS_P2;PMS_P1;PMS_P2;Temp;Humidity;BMP_temperature;BMP_pressure;BME280_temperature;BME280_humidity;BME280_pressure;Samples;Min_cycle;Max_cycle;Signal;HPM_P1;HPM_P2
2022/12/21 00:02:23;;;;;;;158.65;28.90;;;;;;;;;;5099903;28;20100;-93
2022/12/21 00:04:49;;;;;;;150.15;25.17;;;;;;;;;;5099934;28;20082;-93
2022/12/21 00:07:15;;;;;;;259.15;34.95;;;;;;;;;;5085295;27;20093;-92
2022/12/21 00:09:41;;;;;;;224.38;29.95;;;;;;;;;;5086954;27;20051;-94
2022/12/21 00:12:07;;;;;;;160.73;24.40;;;;;;;;;;5103956;27;20042;-93
2022/12/21 00:14:33;;;;;;;128.55;24.65;;;;;;;;;;5103684;27;20106;-93
2022/12/21 00:16:59;;;;;;;177.13;25.67;;;;;;;;;;5086859;27;20065;-93
2022/12/21 00:19:25;;;;;;;175.52;26.60;;;;;;;;;;5086715;27;20156;-92
2022/12/21 00:21:54;;;;;;;295.15;32.53;;;;;;;;;;5103085;27;20046;-92
2022/12/21 00:24:21;;;;;;;327.00;36.70;;;;;;;;;;5103297;27;20047;-93
2022/12/21 00:26:47;;;;;;;316.85;33.67;;;;;;;;;;5085104;27;20113;-92
2022/12/21 00:29:13;;;;;;;337.90;35.60;;;;;;;;;;5102503;27;20047;-93
2022/12/21 00:31:39;;;;;;;239.65;30.00;;;;;;;;;;5085615;27;20116;-92
2022/12/21 00:34:05;;;;;;;292.13;32.03;;;;;;;;;;5102314;27;20089;-92
2022/12/21 00:36:32;;;;;;;364.42;39.20;;;;;;;;;;5102064;27;20039;-92
2022/12/21 00:38:58;;;;;;;214.15;25.50;;;;;;;;;;5101882;27;20047;-92
2022/12/21 00:41:26;;;;;;;320.88;34.35;;;;;;;;;;5101993;27;20072;-93
2022/12/21 00:43:54;;;;;;;236.10;27.92;;;;;;;;;;5101915;27;20035;-93
2022/12/21 00:46:30;;;;;;;214.13;25.73;;;;;;;;;;5102396;27;20563;-93
2022/12/21 00:48:57;;;;;;;145.52;23.08;;;;;;;;;;5102141;27;20043;-93
2022/12/21 00:51:23;;;;;;;92.75;19.55;;;;;;;;;;5102274;27;20046;-93
2022/12/21 00:53:50;;;;;;;227.23;31.15;;;;;;;;;;5102169;27;20102;-92
2022/12/21 00:56:16;;;;;;;203.93;26.77;;;;;;;;;;5102215;27;20070;-93
2022/12/21 00:58:43;;;;;;;211.00;30.35;;;;;;;;;;5087443;28;20068;-92
2022/12/21 01:01:11;;;;;;;134.68;21.20;;;;;;;;;;5081712;28;20054;-92
2022/12/21 01:03:37;;;;;;;193.60;27.58;;;;;;;;;;5098700;28;20031;-93
2022/12/21 01:06:04;;;;;;;120.03;18.35;;;;;;;;;;5081512;28;20140;-92
2022/12/21 01:08:30;;;;;;;172.18;24.17;;;;;;;;;;5081427;28;20035;-92
2022/12/21 01:11:00;;;;;;;181.80;22.58;;;;;;;;;;5081605;28;20088;-93
2022/12/21 01:13:26;;;;;;;145.63;24.05;;;;;;;;;;5081317;28;20089;-92
2022/12/21 01:15:53;;;;;;;155.68;23.15;;;;;;;;;;5081431;28;20039;-92
2022/12/21 01:18:19;;;;;;;91.50;22.00;;;;;;;;;;5080531;28;20048;-91
2022/12/21 01:20:46;;;;;;;90.20;18.42;;;;;;;;;;5080418;28;20503;-92
2022/12/21 01:23:12;;;;;;;162.13;21.83;;;;;;;;;;5080887;28;20043;-92
2022/12/21 01:25:38;;;;;;;113.03;19.67;;;;;;;;;;5080976;28;20084;-92
2022/12/21 01:28:05;;;;;;;159.52;25.73;;;;;;;;;;5064270;28;20496;-92
2022/12/21 01:30:31;;;;;;;88.93;18.45;;;;;;;;;;5064542;28;20065;-92
2022/12/21 01:32:57;;;;;;;133.98;23.08;;;;;;;;;;5081596;28;20039;-92
2022/12/21 01:35:23;;;;;;;122.72;20.80;;;;;;;;;;5080898;28;20039;-92
2022/12/21 01:37:49;;;;;;;110.28;20.95;;;;;;;;;;5080902;28;20048;-93
2022/12/21 01:40:16;;;;;;;77.13;18.42;;;;;;;;;;5080637;28;20083;-92
2022/12/21 01:42:43;;;;;;;143.55;22.23;;;;;;;;;;5098001;28;20043;-92
2022/12/21 01:45:09;;;;;;;140.10;24.13;;;;;;;;;;5063803;28;20157;-92
2022/12/21 01:47:48;;;;;;;73.13;18.65;;;;;;;;;;5080370;28;20055;-92
2022/12/21 01:50:33;;;;;;;66.50;17.20;;;;;;;;;;5080609;28;20050;-91
2022/12/21 01:53:01;;;;;;;179.85;21.90;;;;;;;;;;5097496;28;20080;-92
2022/12/21 01:55:27;;;;;;;240.20;27.83;;;;;;;;;;5097107;28;20050;-92
2022/12/21 01:57:54;;;;;;;171.52;22.83;;;;;;;;;;5070566;27;20062;-91
2022/12/21 02:00:21;;;;;;;160.43;22.70;;;;;;;;;;5101100;27;20047;-91
2022/12/21 02:02:49;;;;;;;228.02;27.63;;;;;;;;;;5117998;27;20065;-91
2022/12/21 02:05:34;;;;;;;163.93;21.70;;;;;;;;;;5102079;27;20122;-90
2022/12/21 02:08:02;;;;;;;244.48;27.83;;;;;;;;;;5128128;27;20039;-93
2022/12/21 02:10:28;;;;;;;157.75;23.05;;;;;;;;;;5112731;27;20043;-91
2022/12/21 02:12:58;;;;;;;115.70;18.08;;;;;;;;;;5118488;27;20049;-95
2022/12/21 02:15:29;;;;;;;305.95;29.88;;;;;;;;;;5102649;27;20080;-96
2022/12/21 02:18:20;;;;;;;159.00;22.38;;;;;;;;;;5136817;27;20456;-92
2022/12/21 02:20:46;;;;;;;115.70;20.30;;;;;;;;;;5123109;27;20519;-90
2022/12/21 02:23:12;;;;;;;155.98;20.80;;;;;;;;;;5104940;27;20049;-90
2022/12/21 02:25:38;;;;;;;66.43;15.65;;;;;;;;;;5106881;27;20039;-90
2022/12/21 02:28:23;;;;;;;136.60;18.20;;;;;;;;;;5102656;27;20047;-90
2022/12/21 02:30:56;;;;;;;182.27;19.65;;;;;;;;;;5104726;27;20054;-91
2022/12/21 02:33:42;;;;;;;234.30;24.05;;;;;;;;;;5145210;22;20062;-92
2022/12/21 02:36:20;;;;;;;163.98;19.10;;;;;;;;;;5125359;28;20075;-90
2022/12/21 02:39:14;;;;;;;149.20;18.02;;;6.30;99.90;;;;;;5099155;28;20082;-91
2022/12/21 02:41:43;;;;;;;207.93;24.20;;;;;;;;;;5129057;28;20107;-95
2022/12/21 02:44:24;;;;;;;105.32;16.75;;;;;;;;;;5106600;28;20113;-91
2022/12/21 02:47:03;;;;;;;58.70;14.77;;;;;;;;;;5114095;28;20054;-92
2022/12/21 02:49:29;;;;;;;163.07;16.75;;;;;;;;;;5100224;28;20519;-96
2022/12/21 02:52:02;;;;;;;190.35;22.15;;;;;;;;;;5107325;28;20039;-90
2022/12/21 02:54:29;;;;;;;191.20;20.33;;;;;;;;;;5127060;28;20047;-91
2022/12/21 02:56:56;;;;;;;167.75;19.27;;;;;;;;;;5108048;28;20042;-93
2022/12/21 02:59:24;;;;;;;144.95;20.20;;;;;;;;;;5114949;28;20097;-90
2022/12/21 03:02:27;;;;;;;228.93;24.63;;;6.10;99.90;;;;;;5115659;22;20051;-89
2022/12/21 03:05:12;;;;;;;211.90;23.23;;;;;;;;;;5082475;28;20048;-90
2022/12/21 03:07:54;;;;;;;231.57;23.15;;;;;;;;;;5098700;28;20051;-89
2022/12/21 03:10:33;;;;;;;203.23;22.13;;;;;;;;;;5117225;28;20453;-90
2022/12/21 03:13:15;;;;;;;158.25;19.05;;;;;;;;;;5082340;28;20043;-89
2022/12/21 03:16:15;;;;;;;321.45;26.08;;;6.00;99.90;;;;;;5082384;28;20127;-89
2022/12/21 03:19:11;;;;;;;236.38;22.27;;;6.10;99.90;;;;;;5100029;28;20053;-89
2022/12/21 03:21:43;;;;;;;146.18;20.13;;;;;;;;;;5083792;28;20051;-90
2022/12/21 03:24:22;;;;;;;257.77;23.63;;;;;;;;;;5081744;28;20475;-89
2022/12/21 03:26:51;;;;;;;118.38;16.27;;;;;;;;;;5082816;28;20046;-89
2022/12/21 03:29:24;;;;;;;250.48;21.63;;;;;;;;;;5100309;28;20404;-90
2022/12/21 03:31:54;;;;;;;209.68;22.05;;;;;;;;;;5099661;28;20084;-89
2022/12/21 03:34:27;;;;;;;217.07;21.05;;;;;;;;;;5083720;28;20143;-90
2022/12/21 03:37:03;;;;;;;218.70;25.42;;;;;;;;;;5099927;28;20164;-90
2022/12/21 03:39:30;;;;;;;208.02;19.85;;;;;;;;;;5082410;28;20047;-90
2022/12/21 03:41:56;;;;;;;169.48;17.42;;;;;;;;;;5082284;28;20134;-90
2022/12/21 03:44:25;;;;;;;200.75;20.27;;;;;;;;;;5099742;28;20039;-90
2022/12/21 03:46:55;;;;;;;170.93;20.05;;;;;;;;;;5081432;28;20525;-94
2022/12/21 03:49:24;;;;;;;161.13;18.70;;;;;;;;;;5082112;28;20059;-96
2022/12/21 03:51:53;;;;;;;185.77;17.80;;;;;;;;;;5099279;28;20044;-90
2022/12/21 03:54:19;;;;;;;148.98;16.58;;;;;;;;;;5087421;28;20047;-90
2022/12/21 03:56:45;;;;;;;166.82;19.60;;;;;;;;;;5078267;28;20446;-91
2022/12/21 03:59:13;;;;;;;73.32;14.40;;;;;;;;;;5062110;28;20118;-91
2022/12/21 04:01:39;;;;;;;137.95;16.85;;;;;;;;;;5077596;28;20051;-91
2022/12/21 04:04:11;;;;;;;155.13;17.88;;;;;;;;;;5077993;28;20051;-91
2022/12/21 04:06:38;;;;;;;100.97;14.25;;;;;;;;;;5094608;28;20083;-91
2022/12/21 04:09:05;;;;;;;195.15;20.92;;;;;;;;;;5077560;28;20043;-90
2022/12/21 04:14:22;;;;;;;74.55;13.10;;;;;;;;;;5094229;28;20083;-90
2022/12/21 04:16:49;;;;;;;84.25;15.07;;;;;;;;;;5094041;28;20051;-90
2022/12/21 04:21:59;;;;;;;141.43;15.55;;;;;;;;;;5080304;28;20047;-91
2022/12/21 04:29:55;;;;;;;173.52;19.08;;;;;;;;;;5093962;28;20051;-91
2022/12/21 04:32:21;;;;;;;202.88;21.15;;;;;;;;;;5061023;28;20046;-91
2022/12/21 04:34:47;;;;;;;79.93;16.00;;;;;;;;;;5077362;28;20086;-90
2022/12/21 04:37:31;;;;;;;171.98;21.73;;;;;;;;;;5077499;28;20040;-91
2022/12/21 04:39:58;;;;;;;113.78;18.33;;;;;;;;;;5077261;28;20079;-90
2022/12/21 04:42:24;;;;;;;108.80;17.55;;;;;;;;;;5077596;28;20040;-90
2022/12/21 04:44:50;;;;;;;189.30;22.90;;;;;;;;;;5060889;28;20047;-90
2022/12/21 04:47:16;;;;;;;179.40;22.20;;;;;;;;;;5060500;28;20093;-90
2022/12/21 04:49:42;;;;;;;152.88;21.63;;;;;;;;;;5060851;28;20047;-90
2022/12/21 04:52:09;;;;;;;202.52;24.67;;;;;;;;;;5094181;28;20044;-91
2022/12/21 04:54:35;;;;;;;159.05;19.27;;;;;;;;;;5063442;28;20043;-90
2022/12/21 04:57:01;;;;;;;111.72;16.08;;;;;;;;;;5064345;28;20376;-91
2022/12/21 04:59:27;;;;;;;137.45;18.75;;;;;;;;;;5064103;28;20051;-90
2022/12/21 05:01:53;;;;;;;121.85;18.75;;;;;;;;;;5080386;28;20056;-90
2022/12/21 05:04:19;;;;;;;91.15;17.25;;;;;;;;;;5064040;28;20058;-90
2022/12/21 05:06:45;;;;;;;89.07;17.67;;;;;;;;;;5080647;28;20426;-91
2022/12/21 05:09:13;;;;;;;109.03;17.70;;;;;;;;;;5063717;28;20046;-90
2022/12/21 05:11:39;;;;;;;89.38;17.17;;;;;;;;;;5080106;28;20145;-90
2022/12/21 05:14:05;;;;;;;82.72;16.15;;;;;;;;;;5081153;28;20047;-91
2022/12/21 05:16:31;;;;;;;127.05;18.98;;;;;;;;;;5080893;28;20201;-91
2022/12/21 05:18:57;;;;;;;103.63;18.27;;;;;;;;;;5080283;28;20044;-90
2022/12/21 05:21:24;;;;;;;109.75;16.35;;;;;;;;;;5063575;28;20040;-91
2022/12/21 05:23:50;;;;;;;127.65;19.10;;;;;;;;;;5063607;28;20051;-91
2022/12/21 05:26:17;;;;;;;117.25;17.52;;;;;;;;;;5080455;28;20043;-91
2022/12/21 05:28:44;;;;;;;91.88;15.70;;;;;;;;;;5096972;28;20054;-91
2022/12/21 05:31:11;;;;;;;81.13;13.70;;;;;;;;;;5079800;28;20089;-90
2022/12/21 05:33:37;;;;;;;51.25;14.48;;;;;;;;;;5079813;28;20050;-91
2022/12/21 05:36:03;;;;;;;108.07;18.85;;;;;;;;;;5063327;28;20097;-90
2022/12/21 05:38:29;;;;;;;107.72;20.23;;;;;;;;;;5080308;28;20039;-92
2022/12/21 05:40:56;;;;;;;148.63;22.45;;;;;;;;;;5063553;28;20043;-90
2022/12/21 05:43:22;;;;;;;103.22;20.30;;;;;;;;;;5063123;28;20096;-90
2022/12/21 05:45:48;;;;;;;121.68;19.25;;;;;;;;;;5063234;28;20392;-91
2022/12/21 05:48:14;;;;;;;137.65;21.17;;;;;;;;;;5080273;28;20139;-90
2022/12/21 05:50:41;;;;;;;179.13;24.52;;;;;;;;;;5063535;28;20398;-91
2022/12/21 05:53:07;;;;;;;127.10;19.05;;;;;;;;;;5079788;28;20040;-91
2022/12/21 05:55:33;;;;;;;134.13;20.42;;;;;;;;;;5079814;28;20039;-90
2022/12/21 05:57:59;;;;;;;127.47;22.98;;;;;;;;;;5096510;28;20043;-91
2022/12/21 06:00:26;;;;;;;126.70;20.65;;;;;;;;;;5080187;28;20047;-90
2022/12/21 06:02:52;;;;;;;142.73;22.88;;;;;;;;;;5096093;28;20109;-91
2022/12/21 06:05:18;;;;;;;112.63;19.30;;;;;;;;;;5079046;28;20052;-91
2022/12/21 06:07:44;;;;;;;86.57;18.65;;;;;;;;;;5079042;28;20050;-91
2022/12/21 06:10:11;;;;;;;102.22;18.10;;;;;;;;;;5062502;28;20043;-90
2022/12/21 06:12:37;;;;;;;64.28;16.55;;;;;;;;;;5080677;28;20051;-90
2022/12/21 06:15:03;;;;;;;152.13;24.17;;;;;;;;;;5080748;28;20495;-91
2022/12/21 06:17:30;;;;;;;119.53;17.85;;;;;;;;;;5081009;28;20102;-90
2022/12/21 06:19:56;;;;;;;156.43;22.75;;;;;;;;;;5080263;28;20043;-91
2022/12/21 06:22:22;;;;;;;100.78;16.77;;;;;;;;;;5080048;28;20126;-91
2022/12/21 06:24:49;;;;;;;110.30;18.48;;;;;;;;;;5079598;28;20492;-91
2022/12/21 06:27:15;;;;;;;73.78;14.55;;;;;;;;;;5078859;28;20046;-91
2022/12/21 06:29:41;;;;;;;137.50;22.88;;;;;;;;;;5078930;28;20108;-91
2022/12/21 06:32:07;;;;;;;122.68;22.17;;;;;;;;;;5062896;28;20127;-91
2022/12/21 06:34:33;;;;;;;130.70;20.40;;;;;;;;;;5063392;28;20044;-96
2022/12/21 06:36:59;;;;;;;120.15;20.60;;;;;;;;;;5079805;28;20096;-95
2022/12/21 06:39:25;;;;;;;134.13;19.17;;;;;;;;;;5079885;28;20047;-96
2022/12/21 06:41:51;;;;;;;133.75;21.35;;;;;;;;;;5079627;28;20479;-96
2022/12/21 06:44:17;;;;;;;163.68;22.88;;;;;;;;;;5079796;28;20069;-96
2022/12/21 06:46:44;;;;;;;106.30;21.10;;;;;;;;;;5063285;28;20047;-96
2022/12/21 06:49:12;;;;;;;130.63;25.13;;;;;;;;;;5063183;28;20048;-94
2022/12/21 06:51:38;;;;;;;132.25;22.60;;;;;;;;;;5079464;28;20045;-95
2022/12/21 06:54:04;;;;;;;92.93;19.58;;;;;;;;;;5079513;28;20048;-96
2022/12/21 06:56:31;;;;;;;99.05;22.20;;;;;;;;;;5096184;28;20056;-96
2022/12/21 06:58:57;;;;;;;113.07;21.60;;;;;;;;;;5096275;28;20096;-95
2022/12/21 07:01:28;;;;;;;116.75;21.98;;;;;;;;;;5079235;28;20047;-93
2022/12/21 07:03:55;;;;;;;137.88;23.38;;;;;;;;;;5078837;28;20108;-94
2022/12/21 07:06:22;;;;;;;124.13;21.58;;;;;;;;;;5079036;28;20044;-96
2022/12/21 07:08:49;;;;;;;208.23;30.15;;;;;;;;;;5078865;28;20043;-96
2022/12/21 07:11:16;;;;;;;141.85;20.83;;;;;;;;;;5079704;28;20039;-94
2022/12/21 07:13:44;;;;;;;149.82;25.70;;;;;;;;;;5069903;28;20042;-92
2022/12/21 07:16:10;;;;;;;179.73;27.42;;;;;;;;;;5073357;28;20044;-91
2022/12/21 07:18:37;;;;;;;137.98;23.50;;;;;;;;;;5077721;28;20043;-95
2022/12/21 07:21:05;;;;;;;103.60;20.98;;;;;;;;;;5077191;28;20036;-96
2022/12/21 07:23:32;;;;;;;240.77;29.38;;;;;;;;;;5077722;28;20051;-90
2022/12/21 07:25:58;;;;;;;180.55;30.58;;;;;;;;;;5077535;28;20047;-93
2022/12/21 07:28:24;;;;;;;154.88;27.38;;;;;;;;;;5093823;28;20054;-90
2022/12/21 07:30:51;;;;;;;148.93;26.83;;;;;;;;;;5076195;28;20130;-90
2022/12/21 07:33:18;;;;;;;153.63;25.10;;;;;;;;;;5076434;28;20468;-90
2022/12/21 07:35:44;;;;;;;168.55;25.50;;;;;;;;;;5076301;28;20408;-91
2022/12/21 07:38:11;;;;;;;166.18;26.98;;;;;;;;;;5076532;28;20047;-90
2022/12/21 07:40:37;;;;;;;127.78;23.52;;;;;;;;;;5076504;28;20070;-89
2022/12/21 07:43:10;;;;;;;147.88;27.10;;;;;;;;;;5076007;28;20092;-91
2022/12/21 07:45:36;;;;;;;111.80;23.73;;;;;;;;;;5076305;28;20036;-90
2022/12/21 07:48:03;;;;;;;101.70;23.70;;;;;;;;;;5076254;28;20047;-91
2022/12/21 07:50:29;;;;;;;126.72;29.17;;;;;;;;;;5076953;28;20509;-90
2022/12/21 07:52:57;;;;;;;88.43;22.35;;;;;;;;;;5076246;28;20506;-89
2022/12/21 07:55:24;;;;;;;118.93;25.38;;;;;;;;;;5076624;28;20383;-90
2022/12/21 07:57:50;;;;;;;141.77;25.30;;;;;;;;;;5075833;28;20074;-89
2022/12/21 08:00:16;;;;;;;135.70;28.00;;;;;;;;;;5076155;28;20036;-90
2022/12/21 08:02:42;;;;;;;147.73;28.73;;;;;;;;;;5071943;28;20360;-90
2022/12/21 08:05:08;;;;;;;212.85;32.50;;;;;;;;;;5076411;28;20070;-89
2022/12/21 08:07:34;;;;;;;171.52;28.50;;;;;;;;;;5076305;28;20092;-89
2022/12/21 08:10:00;;;;;;;184.77;29.17;;;;;;;;;;5076398;28;20097;-90
2022/12/21 08:12:26;;;;;;;143.63;28.73;;;;;;;;;;5075653;28;20069;-89
2022/12/21 08:14:52;;;;;;;149.40;30.75;;;;;;;;;;5076147;28;20499;-89
2022/12/21 08:17:18;;;;;;;154.00;27.55;;;;;;;;;;5075897;28;20078;-88
2022/12/21 08:19:45;;;;;;;138.07;27.90;;;;;;;;;;5076365;28;20046;-90
2022/12/21 08:22:11;;;;;;;88.40;23.27;;;;;;;;;;5076283;28;20050;-89
2022/12/21 08:24:37;;;;;;;87.30;24.20;;;;;;;;;;5075457;28;20047;-90
2022/12/21 08:27:03;;;;;;;125.95;24.55;;;;;;;;;;5093680;28;20524;-90
2022/12/21 08:29:29;;;;;;;106.53;26.17;;;;;;;;;;5079549;28;20142;-90
2022/12/21 08:31:55;;;;;;;146.70;27.25;;;;;;;;;;5079595;28;20044;-90
2022/12/21 08:34:21;;;;;;;77.40;21.77;;;;;;;;;;5080579;28;20051;-90
2022/12/21 08:36:47;;;;;;;73.20;19.48;;;;;;;;;;5079437;28;20051;-89
2022/12/21 08:39:14;;;;;;;86.82;20.67;;;;;;;;;;5096354;28;20172;-89
2022/12/21 08:41:40;;;;;;;147.88;26.90;;;;;;;;;;5079545;28;20043;-90
2022/12/21 08:44:06;;;;;;;144.13;25.42;;;;;;;;;;5095943;28;20046;-89
2022/12/21 08:46:32;;;;;;;70.30;22.35;;;;;;;;;;5079537;28;20085;-89
2022/12/21 08:48:59;;;;;;;76.40;21.67;;;;;;;;;;5079323;28;20074;-89
2022/12/21 08:51:25;;;;;;;93.90;24.10;;;;;;;;;;5096458;28;20061;-89
2022/12/21 08:53:52;;;;;;;78.25;21.95;;;;;;;;;;5096310;28;20166;-89
2022/12/21 08:56:18;;;;;;;76.60;20.63;;;;;;;;;;5095876;28;20048;-89
2022/12/21 08:58:45;;;;;;;91.65;23.10;;;;;;;;;;5078710;28;20434;-89
2022/12/21 09:01:11;;;;;;;111.20;24.25;;;;;;;;;;5079185;28;20127;-89
2022/12/21 09:03:37;;;;;;;67.97;22.00;;;;;;;;;;5078693;28;20059;-89
2022/12/21 09:06:03;;;;;;;78.28;22.70;;;;;;;;;;5078945;28;20130;-89
2022/12/21 09:08:30;;;;;;;73.88;23.75;;;;;;;;;;5078825;28;20479;-90
2022/12/21 09:11:03;;;;;;;65.47;20.92;;;;;;;;;;5096137;28;20036;-90
2022/12/21 09:13:29;;;;;;;87.55;25.80;;;;;;;;;;5095510;28;20048;-90
2022/12/21 09:15:56;;;;;;;63.97;24.05;;;;;;;;;;5078839;28;20130;-89
2022/12/21 09:18:22;;;;;;;64.63;21.30;;;;;;;;;;5078647;28;20036;-89
2022/12/21 09:20:48;;;;;;;60.33;22.77;;;;;;;;;;5078718;28;20039;-89
2022/12/21 09:23:14;;;;;;;51.55;20.63;;;;;;;;;;5095578;28;20040;-88
2022/12/21 09:25:40;;;;;;;67.22;20.27;;;;;;;;;;5095620;28;20040;-88
2022/12/21 09:28:07;;;;;;;50.45;19.65;;;;;;;;;;5095531;28;20449;-89
2022/12/21 09:30:33;;;;;;;52.83;20.55;;;;;;;;;;5078469;28;20044;-89
2022/12/21 09:32:59;;;;;;;54.75;21.83;;;;;;;;;;5078697;28;20051;-89
2022/12/21 09:35:25;;;;;;;67.28;20.83;;;;;;;;;;5078916;28;20410;-90
2022/12/21 09:37:51;;;;;;;47.67;20.42;;;;;;;;;;5094899;28;20774;-89
2022/12/21 09:40:19;;;;;;;51.47;20.02;;;;;;;;;;5095795;28;20039;-89
2022/12/21 09:42:57;;;;;;;49.00;18.30;;;;;;;;;;5079354;28;20047;-91
2022/12/21 09:45:30;;;;;;;48.47;19.58;;;;;;;;;;5079579;28;20066;-90
2022/12/21 09:48:10;;;;;;;59.45;20.02;;;;;;;;;;5079194;28;20104;-90
2022/12/21 09:50:56;;;;;;;50.75;19.15;;;;;;;;;;5079399;28;20040;-91
2022/12/21 09:53:30;;;;;;;58.13;22.27;;;;;;;;;;5078915;28;20082;-89
2022/12/21 09:55:57;;;;;;;;;;;6.40;99.90;;;;;;5096483;28;20062;-89
2022/12/21 09:58:36;;;;;;;54.50;21.23;;;;;;;;;;5079022;28;19919;-90
2022/12/21 10:01:08;;;;;;;60.25;20.58;;;;;;;;;;5078465;28;20100;-89
2022/12/21 10:03:40;;;;;;;57.95;21.80;;;;;;;;;;5078375;28;20051;-89
2022/12/21 10:06:27;;;;;;;50.85;21.80;;;;;;;;;;5113435;28;20096;-89
2022/12/21 10:08:56;;;;;;;48.05;21.15;;;;;;;;;;5078344;28;20101;-90
2022/12/21 10:11:41;;;;;;;53.72;20.02;;;;;;;;;;5078361;28;20040;-89
2022/12/21 10:14:29;;;;;;;57.15;22.58;;;;;;;;;;5078499;28;20043;-89
2022/12/21 10:17:02;;;;;;;56.95;22.10;;;;;;;;;;5078224;28;20400;-90
2022/12/21 10:19:37;;;;;;;55.17;21.65;;;;;;;;;;5078388;28;20039;-92
2022/12/21 10:22:15;;;;;;;54.15;24.60;;;;;;;;;;5079160;28;20112;-90
2022/12/21 10:24:41;;;;;;;58.50;26.15;;;;;;;;;;5095724;28;20040;-89
2022/12/21 10:27:16;;;;;;;63.42;24.95;;;;;;;;;;5078903;28;20075;-90
2022/12/21 10:29:45;;;;;;;47.03;22.10;;;;;;;;;;5079011;28;20047;-89
2022/12/21 10:32:13;;;;;;;55.70;22.50;;;;;;;;;;5079174;28;20048;-89
2022/12/21 10:34:43;;;;;;;55.30;24.38;;;;;;;;;;5114511;28;20043;-90
2022/12/21 10:37:14;;;;;;;66.70;26.25;;;;;;;;;;5079454;28;20055;-90
2022/12/21 10:39:43;;;;;;;47.63;21.75;;;;;;;;;;5078366;28;20035;-91
2022/12/21 10:42:19;;;;;;;53.55;23.35;;;;;;;;;;5079284;28;20043;-89
2022/12/21 10:44:46;;;;;;;51.20;22.13;;;;;;;;;;5079332;28;20043;-90
2022/12/21 10:47:14;;;;;;;46.35;18.83;;;;;;;;;;5078402;28;20040;-90
2022/12/21 10:49:40;;;;;;;52.75;23.48;;;;;;;;;;5096124;28;20206;-89
2022/12/21 10:52:25;;;;;;;52.75;22.73;;;;;;;;;;5077998;28;20069;-88
2022/12/21 10:54:51;;;;;;;59.95;24.10;;;;;;;;;;5078521;28;20457;-91
2022/12/21 10:57:17;;;;;;;56.03;23.42;;;;;;;;;;5079009;28;20040;-90
2022/12/21 10:59:44;;;;;;;50.13;21.75;;;;;;;;;;5078622;28;20359;-91
2022/12/21 11:02:30;;;;;;;44.90;19.95;;;;;;;;;;5078411;28;20559;-90
2022/12/21 11:04:56;;;;;;;49.17;19.58;;;;;;;;;;5095472;28;20609;-89
2022/12/21 11:07:26;;;;;;;35.10;18.45;;;;;;;;;;5078956;28;20051;-92
2022/12/21 11:10:00;;;;;;;45.78;17.92;;;;;;;;;;5113215;28;20040;-91
2022/12/21 11:12:29;;;;;;;36.70;18.05;;;;;;;;;;5078503;28;20039;-90
2022/12/21 11:14:56;;;;;;;46.20;19.70;;;;;;;;;;5078189;28;20100;-88
2022/12/21 11:17:22;;;;;;;46.20;19.30;;;;;;;;;;5077972;28;20075;-88
2022/12/21 11:19:50;;;;;;;44.58;18.45;;;;;;;;;;5078610;28;20087;-91
2022/12/21 11:22:17;;;;;;;45.42;18.25;;;;;;;;;;5094874;28;20519;-89
2022/12/21 11:24:44;;;;;;;44.05;20.17;;;;;;;;;;5077306;28;20047;-88
2022/12/21 11:27:32;;;;;;;42.80;19.13;;;;;;;;;;5077560;28;20090;-89
2022/12/21 11:30:00;;;;;;;40.10;17.35;;;;;;;;;;5078442;28;20069;-90
2022/12/21 11:32:30;;;;;;;46.28;18.73;;;;;;;;;;5112877;28;20035;-89
2022/12/21 11:34:57;;;;;;;51.95;18.10;;;;;;;;;;5077597;28;20403;-89
2022/12/21 11:37:31;;;;;;;34.10;16.38;;;;;;;;;;5094909;28;20101;-90
2022/12/21 11:39:58;;;;;;;30.50;16.05;;;;;;;;;;5078571;28;20480;-90
2022/12/21 11:42:26;;;;;;;53.70;17.40;;;;;;;;;;5078158;28;20065;-90
2022/12/21 11:45:05;;;;;;;32.20;15.98;;;;;;;;;;5094246;28;20075;-89
2022/12/21 11:47:37;;;;;;;38.40;16.48;;;;;;;;;;5077693;28;20418;-89
2022/12/21 11:50:10;;;;;;;44.67;18.10;;;;;;;;;;5076901;28;20399;-89
2022/12/21 11:52:57;;;;;;;42.38;16.73;;;;;;;;;;5077696;28;20054;-89
2022/12/21 11:55:30;;;;;;;36.22;16.25;;;;;;;;;;5053041;28;20044;-90
2022/12/21 11:58:00;;;;;;;48.03;15.48;;;;;;;;;;5094085;28;20092;-90
2022/12/21 12:00:26;;;;;;;42.10;15.43;;;;;;;;;;5077303;28;20082;-89
2022/12/21 12:03:14;;;;;;;43.10;15.68;;;7.90;99.90;;;;;;5095527;28;20047;-89
2022/12/21 12:05:51;;;;;;;40.67;16.80;;;;;;;;;;5115217;28;20059;-92
2022/12/21 12:08:25;;;;;;;38.75;14.73;;;;;;;;;;5079698;28;20055;-89
2022/12/21 12:10:55;;;;;;;32.20;14.82;;;;;;;;;;5080281;28;20043;-89
2022/12/21 12:13:21;;;;;;;27.33;13.82;;;;;;;;;;5079806;28;20101;-88
2022/12/21 12:15:54;;;;;;;26.65;12.43;;;;;;;;;;5079890;28;20131;-89
2022/12/21 12:18:24;;;;;;;27.50;13.25;;;;;;;;;;5079504;28;20076;-89
2022/12/21 12:21:11;;;;;;;39.55;15.88;;;;;;;;;;5079739;28;20043;-90
2022/12/21 12:23:55;;;;;;;33.63;13.35;;;;;;;;;;5096302;28;20043;-89
2022/12/21 12:26:41;;;;;;;33.42;14.63;;;;;;;;;;5079222;28;20044;-89
2022/12/21 12:29:16;;;;;;;27.33;12.13;;;;;;;;;;5077759;28;20043;-88
2022/12/21 12:32:03;;;;;;;29.05;11.63;;;;;;;;;;5079496;28;20054;-89
2022/12/21 12:34:59;;;;;;;26.17;11.15;;;8.10;99.90;;;;;;5079330;28;20314;-88
2022/12/21 12:37:31;;;;;;;30.67;11.80;;;;;;;;;;5114590;28;20050;-89
2022/12/21 12:40:12;;;;;;;24.67;11.52;;;;;;;;;;5096090;28;20130;-89
2022/12/21 12:42:43;;;;;;;27.27;11.90;;;;;;;;;;5079589;28;20043;-88
2022/12/21 12:45:28;;;;;;;25.08;11.18;;;;;;;;;;5095943;28;20093;-88
2022/12/21 12:48:17;;;;;;;32.08;13.02;;;;;;;;;;5095492;28;20367;-89
2022/12/21 12:51:03;;;;;;;35.20;12.05;;;;;;;;;;5073967;28;20048;-89
2022/12/21 12:53:35;;;;;;;34.72;12.35;;;;;;;;;;5079390;28;20070;-88
2022/12/21 12:56:11;;;;;;;34.30;13.25;;;;;;;;;;5114448;28;20051;-90
2022/12/21 12:59:00;;;;;;;30.45;12.48;;;;;;;;;;5096675;28;20044;-90
2022/12/21 13:01:33;;;;;;;31.25;12.65;;;;;;;;;;5092966;28;20040;-89
2022/12/21 13:04:27;;;;;;;33.97;13.20;;;;;;;;;;5079259;28;20039;-89
2022/12/21 13:06:57;;;;;;;29.40;14.35;;;;;;;;;;5079370;28;20050;-88
2022/12/21 13:09:36;;;;;;;28.13;14.30;;;;;;;;;;5078705;28;20048;-89
2022/12/21 13:12:08;;;;;;;26.00;14.50;;;;;;;;;;5078910;28;20488;-89
2022/12/21 13:15:00;;;;;;;35.17;16.95;;;;;;;;;;5077888;28;20058;-88
2022/12/21 13:17:34;;;;;;;33.33;16.30;;;;;;;;;;5077789;28;20043;-88
2022/12/21 13:20:00;;;;;;;26.48;14.40;;;;;;;;;;5078607;28;20510;-88
2022/12/21 13:22:28;;;;;;;29.92;14.93;;;;;;;;;;5078921;28;20079;-87
2022/12/21 13:24:58;;;;;;;29.30;15.32;;;;;;;;;;5113418;28;20076;-88
2022/12/21 13:27:27;;;;;;;28.50;15.77;;;;;;;;;;5078742;28;20039;-88
2022/12/21 13:30:05;;;;;;;25.05;14.77;;;;;;;;;;5095559;28;20043;-89
2022/12/21 13:32:39;;;;;;;25.83;14.30;;;;;;;;;;5079479;28;20489;-89
2022/12/21 13:35:12;;;;;;;26.52;15.48;;;;;;;;;;5079552;28;20472;-89
2022/12/21 13:37:40;;;;;;;25.20;15.43;;;;;;;;;;5096435;28;20050;-90
2022/12/21 13:40:19;;;;;;;24.98;14.43;;;;;;;;;;5079471;28;20047;-89
2022/12/21 13:42:53;;;;;;;27.10;15.40;;;;;;;;;;5097416;28;20039;-89
2022/12/21 13:45:24;;;;;;;29.02;16.63;;;;;;;;;;5080290;28;20039;-88
2022/12/21 13:47:51;;;;;;;27.27;15.30;;;;;;;;;;5079849;28;20095;-88
2022/12/21 13:50:44;;;;;;;27.48;16.92;;;;;;;;;;5079386;28;20042;-90
2022/12/21 13:53:40;;;;;;;28.77;15.68;;;;;;;;;;5079397;28;20201;-90
2022/12/21 13:56:24;;;;;;;26.52;15.68;;;;;;;;;;5070709;28;20055;-90
2022/12/21 13:58:53;;;;;;;30.88;17.60;;;;;;;;;;5079273;28;20122;-90
2022/12/21 14:01:32;;;;;;;29.30;17.70;;;;;;;;;;5096143;28;20105;-89
2022/12/21 14:04:16;;;;;;;29.08;15.98;;;;;;;;;;5093394;28;20087;-89
2022/12/21 14:06:50;;;;;;;;;;;8.10;99.90;;;;;;5076322;28;20040;-90
2022/12/21 14:09:35;;;;;;;28.27;12.07;;;;;;;;;;5058979;28;19976;-90
2022/12/21 14:12:10;;;;;;;20.75;14.10;;;;;;;;;;5059739;28;20097;-90
2022/12/21 14:15:00;;;;;;;25.95;15.40;;;;;;;;;;5059144;28;20404;-90
2022/12/21 14:17:31;;;;;;;31.08;17.02;;;;;;;;;;5059083;28;20532;-90
2022/12/21 14:19:57;;;;;;;28.58;17.60;;;;;;;;;;5075812;28;20040;-90
2022/12/21 14:22:32;;;;;;;31.60;17.15;;;;;;;;;;5058905;28;20105;-91
2022/12/21 14:25:03;;;;;;;28.90;16.38;;;;;;;;;;5058499;28;20043;-90
2022/12/21 14:27:29;;;;;;;32.08;18.88;;;;;;;;;;5074481;28;20044;-90
2022/12/21 14:30:17;;;;;;;32.22;16.60;;;;;;;;;;5074232;28;20067;-90
2022/12/21 14:32:49;;;;;;;29.77;17.85;;;;;;;;;;5041117;28;20048;-90
2022/12/21 14:35:45;;;;;;;35.05;18.90;;;;;;;;;;5056873;28;20714;-90
2022/12/21 14:38:26;;;;;;;40.88;19.85;;;;;;;;;;5044510;28;20139;-89
2022/12/21 14:40:55;;;;;;;33.45;18.73;;;;;;;;;;5057362;28;20048;-90